Terminal Aerodrome Forecast
Issued by NWS

Home | Current Version | Previous Version | Text Only | Print | Product List | Glossary On
Versions: 1 2 3 4 5 6 7 8 9 10 11 12 13 14 15 16 17 18 19 20 21 22 23 24 25 26 27 28 29 30 31 32 33 34 35 36 37 38 39 40 41 42 43 44 45 46 47
000
FTUS44 KHGX 272320
TAFIAH
TAF
KIAH 272320Z 2800/2906 14010KT P6SM VCSH SCT050
     FM280100 18005KT P6SM FEW250
     FM281000 19004KT P6SM SCT015
     FM281500 20006KT P6SM SCT030
     FM282100 16007KT P6SM VCSH SCT060
     FM290200 18004KT P6SM FEW060 SCT150=

USA.gov is the U.S. government's official web portal to all federal, state and local government web resources and services.